Time;durP1;ratioP1;P1;durP2;ratioP2;P2;SDS_P1;SDS_P2;PMS_P1;PMS_P2;Temp;Humidity;BMP_temperature;BMP_pressure;BME280_temperature;BME280_humidity;BME280_pressure;Samples;Min_cycle;Max_cycle;Signal;HPM_P1;HPM_P2
2023/10/28 00:01:04;;;;;;;0.32;0.30;;;12.40;92.00;;;;;;5082386;28;20249;-72
2023/10/28 00:03:30;;;;;;;0.40;0.40;;;;;;;;;;5081579;28;20082;-72
2023/10/28 00:05:56;;;;;;;3.30;0.65;;;;;;;;;;5081927;28;20045;-72
2023/10/28 00:08:22;;;;;;;0.73;0.40;;;;;;;;;;5081935;28;20023;-71
2023/10/28 00:10:48;;;;;;;1.25;0.40;;;;;;;;;;5082382;28;20036;-73
2023/10/28 00:13:14;;;;;;;0.28;0.20;;;12.60;91.40;;;;;;5082209;28;20044;-73
2023/10/28 00:15:40;;;;;;;1.75;0.40;;;;;;;;;;5082029;28;20043;-74
2023/10/28 00:18:09;;;;;;;0.30;0.30;;;12.50;89.50;;;;;;5082017;28;20060;-73
2023/10/28 00:20:36;;;;;;;0.28;0.15;;;12.60;80.80;;;;;;5082607;28;20035;-73
2023/10/28 00:23:05;;;;;;;3.15;0.50;;;15.10;82.30;;;;;;5080351;28;20060;-71
2023/10/28 00:25:31;;;;;;;1.13;0.40;;;12.40;87.80;;;;;;5082261;28;20043;-71
2023/10/28 00:27:57;;;;;;;0.35;0.35;;;12.50;87.70;;;;;;5081962;28;20096;-72
2023/10/28 00:30:24;;;;;;;1.52;0.30;;;12.60;80.70;;;;;;5081767;28;20354;-72
2023/10/28 00:32:52;;;;;;;1.60;0.50;;;12.50;80.90;;;;;;5081647;28;20028;-72
2023/10/28 00:35:21;;;;;;;0.52;0.50;;;;;;;;;;5081866;28;20040;-72
2023/10/28 00:37:47;;;;;;;;;;;12.50;80.60;;;;;;5082000;28;20035;-73
2023/10/28 00:40:13;;;;;;;0.77;0.50;;;12.60;91.20;;;;;;5080298;28;19901;-72
2023/10/28 00:42:39;;;;;;;1.83;0.50;;;;;;;;;;5081404;28;20351;-71
2023/10/28 00:45:08;;;;;;;1.15;0.40;;;12.30;91.10;;;;;;5079914;28;20325;-72
2023/10/28 00:47:34;;;;;;;3.83;0.50;;;;;;;;;;5081401;28;20021;-71
2023/10/28 00:50:01;;;;;;;0.50;0.40;;;12.40;81.00;;;;;;5079945;28;20150;-71
2023/10/28 00:52:27;;;;;;;0.55;0.30;;;12.40;81.20;;;;;;5081256;28;20378;-72
2023/10/28 00:54:54;;;;;;;0.63;0.38;;;;;;;;;;5081038;28;20028;-72
2023/10/28 00:57:21;;;;;;;0.57;0.30;;;12.40;81.20;;;;;;5079744;28;20063;-73
2023/10/28 00:59:47;;;;;;;2.83;0.60;;;;;;;;;;5081074;28;20028;-71
2023/10/28 01:02:13;;;;;;;0.55;0.50;;;12.80;91.60;;;;;;5080728;28;20062;-70
2023/10/28 01:04:40;;;;;;;0.57;0.40;;;12.30;81.20;;;;;;5080751;28;20032;-75
2023/10/28 01:07:07;;;;;;;2.03;0.82;;;12.30;86.20;;;;;;5080659;28;20023;-71
2023/10/28 01:09:47;;;;;;;1.40;0.40;;;12.10;91.50;;;;;;5080730;28;20021;-70
2023/10/28 01:12:13;;;;;;;1.13;0.50;;;12.20;86.80;;;;;;5080900;28;20031;-71
2023/10/28 01:14:40;;;;;;;0.88;0.30;;;12.20;81.40;;;;;;5080633;28;20094;-70
2023/10/28 01:17:06;;;;;;;1.38;0.60;;;12.10;91.60;;;;;;5080758;28;20024;-70
2023/10/28 01:19:34;;;;;;;0.88;0.60;;;12.20;83.40;;;;;;5080634;28;20200;-70
2023/10/28 01:22:00;;;;;;;0.47;0.40;;;;;;;;;;5080374;28;20352;-71
2023/10/28 01:24:28;;;;;;;0.30;0.30;;;12.30;91.80;;;;;;5080734;28;20096;-72
2023/10/28 01:26:54;;;;;;;0.77;0.50;;;;;;;;;;5080692;28;20012;-72
2023/10/28 01:29:20;;;;;;;1.42;0.75;;;12.10;87.50;;;;;;5079328;28;20312;-71
2023/10/28 01:31:47;;;;;;;0.73;0.73;;;12.60;91.70;;;;;;5080564;28;20024;-72
2023/10/28 01:34:13;;;;;;;0.73;0.52;;;;;;;;;;5080402;28;20086;-70
2023/10/28 01:36:38;;;;;;;0.70;0.70;;;12.40;91.50;;;;;;5080754;28;20020;-72
2023/10/28 01:39:04;;;;;;;1.10;0.40;;;12.40;91.60;;;;;;5081176;28;20097;-72
2023/10/28 01:41:30;;;;;;;0.63;0.57;;;;;;;;;;5080837;28;20381;-72
2023/10/28 01:43:56;;;;;;;0.75;0.30;;;12.30;91.30;;;;;;5075165;28;20297;-73
2023/10/28 01:46:21;;;;;;;2.00;0.50;;;12.50;84.00;;;;;;5060086;28;20115;-70
2023/10/28 01:48:47;;;;;;;3.08;0.50;;;;;;;;;;5060036;28;20029;-69
2023/10/28 01:51:14;;;;;;;1.08;0.57;;;;;;;;;;5058906;28;20054;-70
2023/10/28 01:53:39;;;;;;;0.57;0.45;;;12.20;91.20;;;;;;5060324;28;20204;-70
2023/10/28 01:56:05;;;;;;;1.60;0.50;;;;;;;;;;5070275;28;20033;-70
2023/10/28 01:58:32;;;;;;;0.70;0.55;;;12.30;91.20;;;;;;5079901;28;20032;-70
2023/10/28 02:00:58;;;;;;;1.48;0.52;;;12.50;91.30;;;;;;5080262;28;20021;-71
2023/10/28 02:03:24;;;;;;;1.45;0.60;;;12.30;91.20;;;;;;5079861;28;20044;-71
2023/10/28 02:05:51;;;;;;;0.55;0.40;;;;;;;;;;5079832;28;20035;-70
2023/10/28 02:08:17;;;;;;;1.70;0.75;;;;;;;;;;5079752;28;20036;-69
2023/10/28 02:10:43;;;;;;;0.85;0.60;;;;;;;;;;5079784;28;20399;-70
2023/10/28 02:13:09;;;;;;;1.75;0.50;;;12.20;87.00;;;;;;5078619;28;20028;-70
2023/10/28 02:15:34;;;;;;;0.50;0.50;;;12.20;91.40;;;;;;5079760;28;20020;-70
2023/10/28 02:18:00;;;;;;;1.40;0.60;;;;;;;;;;5083952;28;20103;-70
2023/10/28 02:20:28;;;;;;;1.38;0.95;;;;;;;;;;5084146;28;20028;-69
2023/10/28 02:22:53;;;;;;;0.85;0.52;;;12.30;91.80;;;;;;5083651;28;20060;-71
2023/10/28 02:25:20;;;;;;;1.00;0.50;;;;;;;;;;5083813;28;20033;-71
2023/10/28 02:27:46;;;;;;;1.58;0.70;;;12.20;91.70;;;;;;5083697;28;20312;-72
2023/10/28 02:30:13;;;;;;;4.20;1.23;;;12.50;83.60;;;;;;5083983;28;20028;-72
2023/10/28 02:32:39;;;;;;;1.52;0.40;;;12.60;91.70;;;;;;5082534;28;20051;-71
2023/10/28 02:35:05;;;;;;;0.98;0.80;;;12.40;81.60;;;;;;5083769;28;20028;-71
2023/10/28 02:37:31;;;;;;;1.35;0.60;;;;;;;;;;5083632;28;20020;-71
2023/10/28 02:39:57;;;;;;;1.60;0.50;;;;;;;;;;5083631;28;20416;-71
2023/10/28 02:42:23;;;;;;;2.83;0.50;;;12.50;90.70;;;;;;5083818;28;20017;-71
2023/10/28 02:44:50;;;;;;;0.55;0.43;;;12.40;91.90;;;;;;5083834;28;20040;-71
2023/10/28 02:47:15;;;;;;;0.85;0.70;;;12.30;92.00;;;;;;5083722;28;20036;-71
2023/10/28 02:49:41;;;;;;;1.15;0.70;;;12.10;82.80;;;;;;5083805;28;20066;-70
2023/10/28 02:52:07;;;;;;;1.00;0.70;;;;;;;;;;5083745;28;20347;-71
2023/10/28 02:54:36;;;;;;;0.70;0.70;;;12.00;92.60;;;;;;5083709;28;20031;-71
2023/10/28 02:57:03;;;;;;;1.23;0.70;;;12.00;84.60;;;;;;5083401;28;20024;-72
2023/10/28 02:59:29;;;;;;;0.82;0.80;;;;;;;;;;5082173;28;20033;-73
2023/10/28 03:01:55;;;;;;;1.95;0.70;;;11.90;86.30;;;;;;5083502;28;20091;-70
2023/10/28 03:04:21;;;;;;;0.85;0.52;;;11.70;94.10;;;;;;5083198;28;20025;-70
2023/10/28 03:06:47;;;;;;;2.28;0.82;;;;;;;;;;5083039;28;20081;-70
2023/10/28 03:09:13;;;;;;;2.28;0.80;;;;;;;;;;5083155;28;20146;-69
2023/10/28 03:11:39;;;;;;;1.02;0.93;;;;;;;;;;5083098;28;20028;-71
2023/10/28 03:14:05;;;;;;;0.60;0.50;;;11.90;95.10;;;;;;5082926;28;20108;-71
2023/10/28 03:16:31;;;;;;;1.27;0.90;;;11.30;95.40;;;;;;5082819;28;20208;-70
2023/10/28 03:18:57;;;;;;;1.02;0.75;;;;;;;;;;5082941;28;20031;-70
2023/10/28 03:21:24;;;;;;;0.73;0.73;;;11.60;90.60;;;;;;5082574;28;20045;-70
2023/10/28 03:23:50;;;;;;;2.33;0.88;;;;;;;;;;5082574;28;20024;-71
2023/10/28 03:26:16;;;;;;;0.60;0.60;;;;;;;;;;5082422;28;20082;-70
2023/10/28 03:28:42;;;;;;;1.77;0.80;;;;;;;;;;5081155;28;20020;-71
2023/10/28 03:31:12;;;;;;;0.90;0.70;;;11.70;90.60;;;;;;5081070;28;20028;-71
2023/10/28 03:33:39;;;;;;;1.20;0.60;;;11.70;90.60;;;;;;5082790;28;20538;-74
2023/10/28 03:36:05;;;;;;;1.13;0.77;;;11.80;90.80;;;;;;5081636;28;20040;-70
2023/10/28 03:38:35;;;;;;;1.58;0.75;;;11.80;91.50;;;;;;5082637;28;20024;-70
2023/10/28 03:41:11;;;;;;;3.22;0.80;;;11.70;91.40;;;;;;5082206;28;20355;-71
2023/10/28 03:43:38;;;;;;;1.50;0.93;;;11.50;93.30;;;;;;5082351;28;20099;-71
2023/10/28 03:46:04;;;;;;;2.67;0.95;;;11.60;91.90;;;;;;5082468;28;20040;-72
2023/10/28 03:48:30;;;;;;;3.22;0.80;;;;;;;;;;5082224;28;20020;-72
2023/10/28 03:51:01;;;;;;;4.07;1.00;;;11.60;92.50;;;;;;5082149;28;20348;-72
2023/10/28 03:53:27;;;;;;;1.23;0.60;;;11.50;92.60;;;;;;5082347;28;20028;-71
2023/10/28 03:55:53;;;;;;;1.77;1.10;;;;;;;;;;5082212;28;20021;-72
2023/10/28 03:58:19;;;;;;;1.25;0.85;;;11.50;95.70;;;;;;5082124;28;20324;-71
2023/10/28 04:00:46;;;;;;;3.30;0.70;;;11.30;98.60;;;;;;5082364;28;20020;-73
2023/10/28 04:03:12;;;;;;;1.15;0.70;;;11.30;98.90;;;;;;5082259;28;20029;-73
2023/10/28 04:05:38;;;;;;;1.05;0.80;;;11.50;99.20;;;;;;5080403;28;20063;-72
2023/10/28 04:08:05;;;;;;;2.83;0.80;;;11.30;94.00;;;;;;5078031;28;20375;-71
2023/10/28 04:10:31;;;;;;;2.55;1.10;;;;;;;;;;5081636;28;20113;-71
2023/10/28 04:12:57;;;;;;;2.95;0.90;;;;;;;;;;5081755;28;20093;-71
2023/10/28 04:15:22;;;;;;;2.58;0.70;;;11.00;96.70;;;;;;5080235;28;20024;-73
2023/10/28 04:17:48;;;;;;;1.98;0.88;;;11.10;99.00;;;;;;5081031;28;20338;-72
2023/10/28 04:20:14;;;;;;;3.97;0.77;;;;;;;;;;5081229;28;20324;-72
2023/10/28 04:22:40;;;;;;;3.65;1.00;;;10.90;96.10;;;;;;5081255;28;20046;-73
2023/10/28 04:25:08;;;;;;;1.27;1.17;;;;;;;;;;5081435;28;20051;-73
2023/10/28 04:27:34;;;;;;;1.10;0.88;;;10.70;99.90;;;;;;5081469;28;20012;-72
2023/10/28 04:30:00;;;;;;;1.30;1.13;;;;;;;;;;5081381;28;20323;-72
2023/10/28 04:32:27;;;;;;;2.83;1.50;;;10.60;99.90;;;;;;5081334;28;20013;-73
2023/10/28 04:34:53;;;;;;;4.72;1.15;;;;;;;;;;5079846;28;20054;-72
2023/10/28 04:37:19;;;;;;;2.17;1.10;;;;;;;;;;5079772;28;20036;-73
2023/10/28 04:39:45;;;;;;;3.47;1.30;;;;;;;;;;5079431;28;20036;-73
2023/10/28 04:42:11;;;;;;;2.13;1.40;;;;;;;;;;5071090;28;20021;-72
2023/10/28 04:44:37;;;;;;;2.67;1.40;;;10.60;99.90;;;;;;5069825;28;20095;-72
2023/10/28 04:47:03;;;;;;;4.72;1.52;;;;;;;;;;5075080;28;20068;-72
2023/10/28 04:49:29;;;;;;;3.35;1.85;;;10.30;97.00;;;;;;5060682;28;20233;-71
2023/10/28 04:51:55;;;;;;;2.10;1.40;;;;;;;;;;5076805;28;20021;-73
2023/10/28 04:54:22;;;;;;;4.68;1.50;;;10.60;99.90;;;;;;5061091;28;20032;-72
2023/10/28 04:56:49;;;;;;;1.75;1.38;;;10.40;99.90;;;;;;5060878;28;20013;-73
2023/10/28 04:59:15;;;;;;;3.08;2.08;;;10.70;99.90;;;;;;5060919;28;20029;-72
2023/10/28 05:01:41;;;;;;;4.55;1.70;;;10.40;99.90;;;;;;5060718;28;20019;-73
2023/10/28 05:04:10;;;;;;;2.70;1.38;;;;;;;;;;5060178;28;20033;-70
2023/10/28 05:06:36;;;;;;;;;;;10.60;96.30;;;;;;5059100;28;20389;-72
2023/10/28 05:09:02;;;;;;;6.20;2.03;;;;;;;;;;5075480;28;19913;-70
2023/10/28 05:11:28;;;;;;;4.63;1.02;;;10.60;99.90;;;;;;5059990;28;20071;-70
2023/10/28 05:13:54;;;;;;;2.35;1.38;;;;;;;;;;5059228;28;20025;-70
2023/10/28 05:16:20;;;;;;;3.20;1.00;;;10.70;99.90;;;;;;5060558;28;20025;-70
2023/10/28 05:18:46;;;;;;;5.53;1.20;;;10.60;98.00;;;;;;5060383;28;20320;-73
2023/10/28 05:21:13;;;;;;;3.90;1.45;;;;;;;;;;5060204;28;20038;-72
2023/10/28 05:23:39;;;;;;;6.57;1.35;;;10.50;97.00;;;;;;5060523;28;20071;-72
2023/10/28 05:26:07;;;;;;;3.22;1.88;;;10.30;99.90;;;;;;5060296;28;20342;-71
2023/10/28 05:28:33;;;;;;;2.92;1.60;;;10.50;99.90;;;;;;5060230;28;20029;-73
2023/10/28 05:30:59;;;;;;;4.10;1.05;;;;;;;;;;5060936;28;20043;-72
2023/10/28 05:33:25;;;;;;;3.95;1.13;;;10.20;99.90;;;;;;5061194;28;20017;-73
2023/10/28 05:35:51;;;;;;;3.20;1.40;;;;;;;;;;5061437;28;20031;-74
2023/10/28 05:38:17;;;;;;;7.10;1.10;;;10.20;97.40;;;;;;5061364;28;20021;-71
2023/10/28 05:40:43;;;;;;;1.55;0.90;;;;;;;;;;5059879;28;20029;-70
2023/10/28 05:43:09;;;;;;;1.92;1.20;;;10.20;99.90;;;;;;5060020;28;20320;-70
2023/10/28 05:45:35;;;;;;;0.98;0.85;;;10.20;99.90;;;;;;5059722;28;20051;-71
2023/10/28 05:48:02;;;;;;;1.55;1.17;;;10.30;97.70;;;;;;5060078;28;20033;-71
2023/10/28 05:50:28;;;;;;;3.03;0.80;;;10.30;99.90;;;;;;5059664;28;20021;-71
2023/10/28 05:52:54;;;;;;;2.92;0.98;;;;;;;;;;5059680;28;20048;-71
2023/10/28 05:55:22;;;;;;;2.45;1.30;;;;;;;;;;5060099;28;20160;-71
2023/10/28 05:57:48;;;;;;;1.25;0.85;;;;;;;;;;5059826;28;20067;-70
2023/10/28 06:00:15;;;;;;;7.28;0.90;;;;;;;;;;5058574;28;20122;-71
2023/10/28 06:02:41;;;;;;;1.55;0.80;;;10.20;99.90;;;;;;5059894;28;20025;-72
2023/10/28 06:05:07;;;;;;;0.80;0.77;;;;;;;;;;5059803;28;20055;-72
2023/10/28 06:07:33;;;;;;;2.25;0.90;;;10.20;99.90;;;;;;5058685;28;20020;-71
2023/10/28 06:09:59;;;;;;;1.08;0.98;;;10.10;99.90;;;;;;5060021;28;20036;-72
2023/10/28 06:12:25;;;;;;;2.20;1.00;;;10.20;99.90;;;;;;5059892;28;20021;-71
2023/10/28 06:14:51;;;;;;;1.63;0.93;;;10.20;99.90;;;;;;5059800;28;20213;-72
2023/10/28 06:17:17;;;;;;;1.52;1.00;;;;;;;;;;5075327;28;20025;-71
2023/10/28 06:19:43;;;;;;;14.32;7.82;;;10.00;99.90;;;;;;5060157;28;20017;-73
2023/10/28 06:22:11;;;;;;;15.82;8.50;;;9.90;98.10;;;;;;5073146;28;20784;-72
2023/10/28 06:24:40;;;;;;;14.93;7.90;;;11.00;98.70;;;;;;5077595;28;20060;-72
2023/10/28 06:27:08;;;;;;;12.25;5.38;;;;;;;;;;5060064;28;20071;-71
2023/10/28 06:29:34;;;;;;;7.50;3.90;;;9.80;99.90;;;;;;5071096;28;20091;-71
2023/10/28 06:32:00;;;;;;;6.65;3.42;;;;;;;;;;5079969;28;20305;-71
2023/10/28 06:34:29;;;;;;;7.28;4.25;;;;;;;;;;5079865;28;20126;-72
2023/10/28 06:36:56;;;;;;;;;;;10.10;99.90;;;;;;5078992;28;20035;-71
2023/10/28 06:39:22;;;;;;;4.50;3.42;;;10.80;99.90;;;;;;5058425;28;19931;-73
2023/10/28 06:41:48;;;;;;;4.47;2.67;;;;;;;;;;5060056;28;20021;-73
2023/10/28 06:44:14;;;;;;;3.00;1.90;;;10.40;99.60;;;;;;5060962;28;20021;-72
2023/10/28 06:46:40;;;;;;;2.60;2.08;;;10.70;99.90;;;;;;5064073;28;20028;-72
2023/10/28 06:49:08;;;;;;;3.10;2.38;;;;;;;;;;5080548;28;20032;-72
2023/10/28 06:51:33;;;;;;;4.13;2.15;;;10.70;99.90;;;;;;5079181;28;20025;-72
2023/10/28 06:53:59;;;;;;;3.17;2.55;;;10.70;99.90;;;;;;5078766;28;20362;-72
2023/10/28 06:56:25;;;;;;;4.35;2.40;;;;;;;;;;5071194;28;20091;-72
2023/10/28 06:58:51;;;;;;;3.80;2.38;;;11.00;98.50;;;;;;5080764;28;20024;-71
2023/10/28 07:01:19;;;;;;;3.80;2.10;;;11.30;99.40;;;;;;5079686;28;20096;-71
2023/10/28 07:03:45;;;;;;;2.88;1.90;;;11.20;99.90;;;;;;5081226;28;20032;-70
2023/10/28 07:06:14;;;;;;;5.72;2.97;;;11.60;99.90;;;;;;5076007;28;20399;-73
2023/10/28 07:09:01;;;;;;;2.85;2.00;;;11.60;99.90;;;;;;5086938;28;20020;-79
2023/10/28 07:11:27;;;;;;;4.97;1.70;;;;;;;;;;5040513;28;20338;-75
2023/10/28 07:13:53;;;;;;;2.13;1.75;;;11.80;99.90;;;;;;5024226;28;20044;-73
2023/10/28 07:16:19;;;;;;;2.97;1.30;;;;;;;;;;5024741;28;20037;-83
2023/10/28 07:18:45;;;;;;;5.60;1.67;;;;;;;;;;5033431;28;20337;-76
2023/10/28 07:21:11;;;;;;;2.60;1.45;;;;;;;;;;5037027;28;20125;-74
2023/10/28 07:23:37;;;;;;;2.85;1.55;;;12.60;99.30;;;;;;5023229;28;20057;-73
2023/10/28 07:26:03;;;;;;;4.10;2.15;;;12.90;99.90;;;;;;5030930;28;20405;-72
2023/10/28 07:28:36;;;;;;;2.45;1.77;;;;;;;;;;5023431;28;20055;-72
2023/10/28 07:31:02;;;;;;;3.50;1.98;;;13.10;99.10;;;;;;5041734;28;20391;-72
2023/10/28 07:33:28;;;;;;;2.60;1.80;;;13.10;98.70;;;;;;5036294;28;20234;-73
2023/10/28 07:35:54;;;;;;;1.90;1.50;;;;;;;;;;5026070;28;20056;-73
2023/10/28 07:38:20;;;;;;;2.90;2.13;;;13.60;94.20;;;;;;5042789;28;20017;-75
2023/10/28 07:40:47;;;;;;;3.85;1.10;;;13.80;93.80;;;;;;5063701;22;20057;-75
2023/10/28 07:43:15;;;;;;;3.50;1.25;;;14.00;98.40;;;;;;5041460;28;20551;-77
2023/10/28 07:45:42;;;;;;;2.45;1.73;;;14.10;95.90;;;;;;5041558;28;20033;-73
2023/10/28 07:48:09;;;;;;;1.33;1.20;;;14.30;93.20;;;;;;5037574;28;20033;-75
2023/10/28 07:50:41;;;;;;;1.35;1.20;;;14.00;92.90;;;;;;5030261;28;20032;-75
2023/10/28 07:53:07;;;;;;;2.65;0.90;;;14.10;92.60;;;;;;5039550;28;20386;-74
2023/10/28 07:55:34;;;;;;;1.85;1.23;;;14.20;96.60;;;;;;5040602;28;20039;-74
2023/10/28 07:58:00;;;;;;;1.40;1.13;;;14.20;92.20;;;;;;5041456;28;20279;-74
2023/10/28 08:00:26;;;;;;;2.65;1.23;;;14.50;96.40;;;;;;5040178;28;20340;-74
2023/10/28 08:02:53;;;;;;;1.85;1.33;;;14.70;93.00;;;;;;5038070;28;20029;-74
2023/10/28 08:05:19;;;;;;;2.65;0.98;;;14.60;95.20;;;;;;5041794;28;20241;-75
2023/10/28 08:07:50;;;;;;;2.00;1.15;;;14.80;90.60;;;;;;5041894;28;20025;-75
2023/10/28 08:10:17;;;;;;;1.30;1.00;;;15.00;94.10;;;;;;5041315;28;20097;-75
2023/10/28 08:12:43;;;;;;;1.92;0.93;;;14.70;95.70;;;;;;5037676;28;20325;-74
2023/10/28 08:15:09;;;;;;;1.23;1.00;;;;;;;;;;5041277;28;20030;-74
2023/10/28 08:17:35;;;;;;;3.08;1.30;;;;;;;;;;5032346;28;20089;-75
2023/10/28 08:20:02;;;;;;;0.88;0.68;;;14.90;95.10;;;;;;5028691;28;20057;-76
2023/10/28 08:22:28;;;;;;;1.13;0.68;;;;;;;;;;5024766;28;20226;-75
2023/10/28 08:24:54;;;;;;;1.50;0.93;;;14.60;94.00;;;;;;5045520;28;20224;-74
2023/10/28 08:27:19;;;;;;;6.53;1.00;;;14.70;92.70;;;;;;5041373;28;20108;-74
2023/10/28 08:29:45;;;;;;;2.38;0.88;;;;;;;;;;5041264;28;20056;-75
2023/10/28 08:32:11;;;;;;;0.95;0.80;;;14.70;95.60;;;;;;5041504;28;20044;-75
2023/10/28 08:34:38;;;;;;;0.85;0.60;;;14.70;95.20;;;;;;5039901;28;20033;-75
2023/10/28 08:37:04;;;;;;;1.65;0.88;;;;;;;;;;5034537;28;20025;-75
2023/10/28 08:39:31;;;;;;;0.80;0.55;;;;;;;;;;5021390;28;20234;-74
2023/10/28 08:42:04;;;;;;;2.05;0.80;;;15.20;88.40;;;;;;5036263;28;20068;-75
2023/10/28 08:44:31;;;;;;;4.07;1.00;;;15.50;86.70;;;;;;5021318;28;20044;-76
2023/10/28 08:46:57;;;;;;;1.02;0.85;;;15.80;92.30;;;;;;5036300;28;20265;-73
2023/10/28 08:49:25;;;;;;;1.83;0.95;;;16.10;84.70;;;;;;5021797;28;20033;-74
2023/10/28 08:51:58;;;;;;;1.77;1.02;;;16.20;83.20;;;;;;5039843;28;20360;-73
2023/10/28 08:54:26;;;;;;;5.00;2.20;;;16.30;90.80;;;;;;5039916;28;20020;-75
2023/10/28 08:56:55;;;;;;;6.32;1.42;;;16.10;86.60;;;;;;5040884;28;20085;-74
2023/10/28 08:59:21;;;;;;;3.28;0.90;;;;;;;;;;5040934;28;20105;-74
2023/10/28 09:01:47;;;;;;;3.53;1.00;;;15.80;88.70;;;;;;5026974;28;20022;-74
2023/10/28 09:04:14;;;;;;;3.28;1.15;;;15.80;86.20;;;;;;5026245;28;20032;-74
2023/10/28 09:06:42;;;;;;;2.58;0.93;;;;;;;;;;5040432;28;20036;-75
2023/10/28 09:09:12;;;;;;;1.88;0.85;;;15.80;91.30;;;;;;5040494;28;20017;-75
2023/10/28 09:11:39;;;;;;;1.23;0.90;;;15.70;83.40;;;;;;5040410;28;20371;-74
2023/10/28 09:14:07;;;;;;;2.25;1.23;;;16.20;91.50;;;;;;5039157;28;20048;-74
2023/10/28 09:16:34;;;;;;;1.70;1.10;;;16.40;91.30;;;;;;5040627;28;20075;-75
2023/10/28 09:19:02;;;;;;;1.65;0.85;;;16.40;81.90;;;;;;5038662;28;20035;-74
2023/10/28 09:21:28;;;;;;;2.00;0.90;;;16.70;90.20;;;;;;5039706;28;20081;-73
2023/10/28 09:24:01;;;;;;;2.28;1.08;;;16.80;89.50;;;;;;5040221;28;20052;-73
2023/10/28 09:26:28;;;;;;;3.10;1.45;;;17.00;88.90;;;;;;5040551;28;20037;-73
2023/10/28 09:28:54;;;;;;;1.42;1.08;;;16.80;88.40;;;;;;5040625;28;20029;-73
2023/10/28 09:31:28;;;;;;;1.42;0.93;;;16.90;79.20;;;;;;5040269;28;20455;-73
2023/10/28 09:33:55;;;;;;;2.13;1.15;;;16.90;88.50;;;;;;5040507;28;20017;-73
2023/10/28 09:36:21;;;;;;;1.83;0.55;;;16.90;79.40;;;;;;5040398;28;20033;-73
2023/10/28 09:38:47;;;;;;;1.42;0.90;;;;;;;;;;5023174;28;20087;-73
2023/10/28 09:41:14;;;;;;;2.35;1.00;;;17.70;81.50;;;;;;5021046;28;20088;-73
2023/10/28 09:43:40;;;;;;;3.35;0.93;;;17.30;77.40;;;;;;5020422;28;20333;-73
2023/10/28 09:46:06;;;;;;;1.92;1.23;;;17.30;76.90;;;;;;5035487;28;20049;-73
2023/10/28 09:48:34;;;;;;;1.55;0.77;;;17.20;76.40;;;;;;5020292;28;20049;-73
2023/10/28 09:51:00;;;;;;;1.45;1.10;;;;;;;;;;5019980;28;20092;-73
2023/10/28 09:53:37;;;;;;;1.52;0.95;;;17.00;76.30;;;;;;5020447;28;20071;-73
2023/10/28 09:56:04;;;;;;;3.92;1.30;;;17.00;78.60;;;;;;5035327;28;20034;-74
2023/10/28 09:58:38;;;;;;;2.03;1.17;;;17.10;77.00;;;;;;5020023;28;20021;-73
2023/10/28 10:01:14;;;;;;;2.28;1.40;;;17.00;85.70;;;;;;5019884;28;20356;-74
2023/10/28 10:03:51;;;;;;;3.38;1.50;;;17.50;76.00;;;;;;5034945;28;20052;-73
2023/10/28 10:06:18;;;;;;;1.15;0.70;;;;;;;;;;5034819;28;20041;-73
2023/10/28 10:08:52;;;;;;;1.05;0.70;;;18.40;73.90;;;;;;5019589;28;20113;-73
2023/10/28 10:11:22;;;;;;;0.70;0.60;;;18.20;73.50;;;;;;5019926;28;20030;-73
2023/10/28 10:13:48;;;;;;;1.95;0.90;;;18.40;72.20;;;;;;5019682;28;20018;-74
2023/10/28 10:16:53;;;;;;;2.30;0.57;;;18.50;80.50;;;;;;5019841;28;20022;-74
2023/10/28 10:19:35;;;;;;;2.38;1.10;;;18.80;72.40;;;;;;5002749;28;20034;-75
2023/10/28 10:22:08;;;;;;;1.75;1.27;;;18.80;78.50;;;;;;5019268;28;20018;-74
2023/10/28 10:24:33;;;;;;;2.03;1.27;;;18.60;72.20;;;;;;5019494;28;20097;-73
2023/10/28 10:27:01;;;;;;;4.07;1.38;;;18.20;72.90;;;;;;5019722;28;20234;-73
2023/10/28 10:29:38;;;;;;;4.10;1.13;;;17.80;74.80;;;;;;5022426;28;20216;-73
2023/10/28 10:32:17;;;;;;;0.98;0.80;;;17.90;82.90;;;;;;5030320;28;20029;-73
2023/10/28 10:34:45;;;;;;;1.50;0.93;;;;;;;;;;5036355;28;20324;-73
2023/10/28 10:37:24;;;;;;;1.77;0.93;;;17.90;74.50;;;;;;5040490;28;20029;-73
2023/10/28 10:39:51;;;;;;;1.08;0.90;;;;;;;;;;5043305;28;20524;-74
2023/10/28 10:42:16;;;;;;;3.50;1.13;;;17.90;81.60;;;;;;5040395;28;20021;-74
2023/10/28 10:44:42;;;;;;;4.03;0.90;;;18.60;77.80;;;;;;5023591;28;20354;-74
2023/10/28 10:47:09;;;;;;;1.30;1.20;;;18.50;71.30;;;;;;5023675;28;20021;-74
2023/10/28 10:49:36;;;;;;;1.23;0.50;;;;;;;;;;5023299;28;20210;-74
2023/10/28 10:52:03;;;;;;;1.70;0.70;;;18.20;77.30;;;;;;5027897;28;20037;-74
2023/10/28 10:54:38;;;;;;;1.00;0.80;;;17.90;68.60;;;;;;5043083;28;20359;-74
2023/10/28 10:57:07;;;;;;;1.92;0.52;;;17.80;69.20;;;;;;5042989;28;20029;-75
2023/10/28 10:59:34;;;;;;;2.08;0.63;;;17.90;77.90;;;;;;5042911;28;20071;-74
2023/10/28 11:02:01;;;;;;;2.63;0.65;;;;;;;;;;5055786;28;20136;-74
2023/10/28 11:04:30;;;;;;;2.95;0.68;;;17.60;70.90;;;;;;5038365;28;20030;-74
2023/10/28 11:06:57;;;;;;;1.35;0.60;;;18.30;68.70;;;;;;5036294;28;20329;-73
2023/10/28 11:09:23;;;;;;;1.90;0.57;;;;;;;;;;5042530;28;20029;-73
2023/10/28 11:11:49;;;;;;;1.67;0.60;;;18.10;68.60;;;;;;5041523;28;20101;-73
2023/10/28 11:14:16;;;;;;;1.35;0.60;;;18.20;72.00;;;;;;5042140;28;20064;-73
2023/10/28 11:16:43;;;;;;;0.52;0.40;;;18.20;69.70;;;;;;5036022;28;20033;-74
2023/10/28 11:19:10;;;;;;;0.40;0.40;;;18.20;59.50;;;;;;5038265;28;20033;-74
2023/10/28 11:21:36;;;;;;;1.83;0.40;;;18.30;67.70;;;;;;5036333;28;20057;-74
2023/10/28 11:24:04;;;;;;;0.30;0.30;;;18.10;63.20;;;;;;5022700;28;20195;-74
2023/10/28 11:26:30;;;;;;;0.88;0.40;;;18.20;59.40;;;;;;5034015;28;20052;-75
2023/10/28 11:29:00;;;;;;;1.75;0.20;;;17.70;67.00;;;;;;5023186;28;20241;-75
2023/10/28 11:31:33;;;;;;;0.40;0.40;;;17.80;66.30;;;;;;5026475;28;20329;-74
2023/10/28 11:34:00;;;;;;;0.77;0.20;;;17.90;57.50;;;;;;5041914;28;20029;-74
2023/10/28 11:36:26;;;;;;;3.05;0.50;;;17.70;66.40;;;;;;5040114;28;20029;-74
2023/10/28 11:38:54;;;;;;;4.40;0.60;;;17.90;67.10;;;;;;5051706;28;20031;-74
2023/10/28 11:41:22;;;;;;;3.42;0.75;;;17.70;58.80;;;;;;5042200;28;20052;-74
2023/10/28 11:43:50;;;;;;;1.73;0.50;;;17.70;59.30;;;;;;5042355;28;20032;-73
2023/10/28 11:46:16;;;;;;;2.90;0.77;;;;;;;;;;5037950;28;20072;-73
2023/10/28 11:48:45;;;;;;;3.58;1.05;;;17.70;62.60;;;;;;5021415;28;20033;-73
2023/10/28 11:51:12;;;;;;;1.98;0.63;;;18.10;61.30;;;;;;5022282;28;20318;-74
2023/10/28 11:53:44;;;;;;;1.73;0.75;;;18.00;69.70;;;;;;5022223;28;20280;-73
2023/10/28 11:56:10;;;;;;;1.35;0.75;;;;;;;;;;5025155;28;20030;-72
2023/10/28 11:58:36;;;;;;;2.90;0.65;;;;;;;;;;5035688;28;20097;-73
2023/10/28 12:01:01;;;;;;;1.40;0.70;;;18.00;69.80;;;;;;5041786;28;20017;-74
2023/10/28 12:03:27;;;;;;;2.85;0.70;;;18.10;66.80;;;;;;5041584;28;20034;-74
2023/10/28 12:05:53;;;;;;;4.20;0.60;;;;;;;;;;5041674;28;20424;-74
2023/10/28 12:08:19;;;;;;;1.70;0.75;;;18.20;67.60;;;;;;5042040;28;20036;-75
2023/10/28 12:10:46;;;;;;;1.95;0.60;;;;;;;;;;5034717;28;20025;-74
2023/10/28 12:13:12;;;;;;;1.17;0.85;;;18.30;60.50;;;;;;5021769;28;20022;-73
2023/10/28 12:15:39;;;;;;;2.20;0.52;;;18.20;61.10;;;;;;5021615;28;20037;-74
2023/10/28 12:18:05;;;;;;;0.73;0.50;;;;;;;;;;5026142;28;20030;-74
2023/10/28 12:20:31;;;;;;;1.75;0.80;;;;;;;;;;5040400;28;20075;-74
2023/10/28 12:22:57;;;;;;;1.83;0.65;;;18.20;67.10;;;;;;5041413;28;20079;-74
2023/10/28 12:25:23;;;;;;;1.35;0.63;;;18.10;58.80;;;;;;5041287;28;20336;-73
2023/10/28 12:27:50;;;;;;;4.13;0.70;;;17.80;68.30;;;;;;5041415;28;20084;-72
2023/10/28 12:30:16;;;;;;;1.15;0.75;;;17.90;61.50;;;;;;5040049;28;20033;-74
2023/10/28 12:32:42;;;;;;;0.75;0.43;;;17.30;65.00;;;;;;5041467;28;20025;-74
2023/10/28 12:35:08;;;;;;;4.68;1.55;;;;;;;;;;5041326;28;20051;-74
2023/10/28 12:37:34;;;;;;;0.80;0.55;;;17.30;69.70;;;;;;5041014;28;20092;-74
2023/10/28 12:40:00;;;;;;;1.67;0.60;;;16.80;62.50;;;;;;5040810;28;20053;-73
2023/10/28 12:42:26;;;;;;;1.10;0.40;;;;;;;;;;5041234;28;20045;-73
2023/10/28 12:44:52;;;;;;;3.42;0.50;;;;;;;;;;5040797;28;20272;-74
2023/10/28 12:47:18;;;;;;;2.78;0.57;;;;;;;;;;5041018;28;20025;-74
2023/10/28 12:49:46;;;;;;;1.70;0.55;;;16.50;63.80;;;;;;5056205;28;20048;-74
2023/10/28 12:52:13;;;;;;;7.33;1.00;;;16.60;60.30;;;;;;5040994;28;20026;-73
2023/10/28 12:54:39;;;;;;;2.00;0.88;;;;;;;;;;5040948;28;20025;-73
2023/10/28 12:57:07;;;;;;;3.28;0.77;;;16.40;69.50;;;;;;5056376;28;20309;-74
2023/10/28 12:59:33;;;;;;;9.83;1.17;;;16.30;69.60;;;;;;5039436;28;20024;-73
2023/10/28 13:01:59;;;;;;;4.07;0.77;;;;;;;;;;5040966;28;20029;-73
2023/10/28 13:04:25;;;;;;;2.72;0.57;;;16.30;68.80;;;;;;5040880;28;20021;-73
2023/10/28 13:06:51;;;;;;;2.40;0.60;;;;;;;;;;5040730;28;20056;-73
2023/10/28 13:09:17;;;;;;;2.97;0.50;;;;;;;;;;5040719;28;20237;-73
2023/10/28 13:11:43;;;;;;;2.97;0.60;;;16.30;66.30;;;;;;5040596;28;20073;-73
2023/10/28 13:14:09;;;;;;;1.45;0.52;;;16.10;70.00;;;;;;5055800;28;20259;-73
2023/10/28 13:16:35;;;;;;;3.47;0.77;;;16.30;68.50;;;;;;5055730;28;20344;-74
2023/10/28 13:19:02;;;;;;;2.67;0.70;;;16.20;61.10;;;;;;5040349;28;20029;-73